sensor_id;sensor_type;location;lat;lon;timestamp;temperature;humidity
23629;DHT22;11991;57.150;-2.134;2023-03-31T00:00:45;10.40;99.90
23629;DHT22;11991;57.150;-2.134;2023-03-31T00:03:15;10.30;99.90
23629;DHT22;11991;57.150;-2.134;2023-03-31T00:05:57;10.30;99.90
23629;DHT22;11991;57.150;-2.134;2023-03-31T00:08:26;10.20;99.90
23629;DHT22;11991;57.150;-2.134;2023-03-31T00:11:01;10.20;99.90
23629;DHT22;11991;57.150;-2.134;2023-03-31T00:13:29;10.10;99.90
23629;DHT22;11991;57.150;-2.134;2023-03-31T00:15:59;10.10;99.90
23629;DHT22;11991;57.150;-2.134;2023-03-31T00:18:26;10.10;99.90
23629;DHT22;11991;57.150;-2.134;2023-03-31T00:21:06;10.00;99.90
23629;DHT22;11991;57.150;-2.134;2023-03-31T00:23:34;10.00;99.90
23629;DHT22;11991;57.150;-2.134;2023-03-31T00:26:01;10.00;99.90
23629;DHT22;11991;57.150;-2.134;2023-03-31T00:28:28;10.10;99.90
23629;DHT22;11991;57.150;-2.134;2023-03-31T00:30:59;10.10;99.90
23629;DHT22;11991;57.150;-2.134;2023-03-31T00:33:27;10.10;99.90
23629;DHT22;11991;57.150;-2.134;2023-03-31T00:35:56;10.10;99.90
23629;DHT22;11991;57.150;-2.134;2023-03-31T00:38:28;10.10;99.90
23629;DHT22;11991;57.150;-2.134;2023-03-31T00:40:56;10.00;99.90
23629;DHT22;11991;57.150;-2.134;2023-03-31T00:43:28;10.10;99.90
23629;DHT22;11991;57.150;-2.134;2023-03-31T00:46:17;10.10;99.90
23629;DHT22;11991;57.150;-2.134;2023-03-31T00:48:54;10.00;99.90
23629;DHT22;11991;57.150;-2.134;2023-03-31T00:51:29;10.00;99.90
23629;DHT22;11991;57.150;-2.134;2023-03-31T00:54:02;10.00;99.90
23629;DHT22;11991;57.150;-2.134;2023-03-31T00:56:36;10.00;99.90
23629;DHT22;11991;57.150;-2.134;2023-03-31T00:59:07;10.10;99.90
23629;DHT22;11991;57.150;-2.134;2023-03-31T01:01:37;10.00;99.90
23629;DHT22;11991;57.150;-2.134;2023-03-31T01:04:09;10.00;99.90
23629;DHT22;11991;57.150;-2.134;2023-03-31T01:06:46;10.00;99.90
23629;DHT22;11991;57.150;-2.134;2023-03-31T01:09:16;10.00;99.90
23629;DHT22;11991;57.150;-2.134;2023-03-31T01:11:44;10.00;99.90
23629;DHT22;11991;57.150;-2.134;2023-03-31T01:14:13;10.00;99.90
23629;DHT22;11991;57.150;-2.134;2023-03-31T01:16:42;10.00;99.90
23629;DHT22;11991;57.150;-2.134;2023-03-31T01:19:17;10.00;99.90
23629;DHT22;11991;57.150;-2.134;2023-03-31T01:27:32;10.10;99.90
23629;DHT22;11991;57.150;-2.134;2023-03-31T01:33:02;10.00;99.90
23629;DHT22;11991;57.150;-2.134;2023-03-31T01:38:32;10.00;99.90
23629;DHT22;11991;57.150;-2.134;2023-03-31T01:41:12;10.00;99.90
23629;DHT22;11991;57.150;-2.134;2023-03-31T01:51:32;10.00;99.90
23629;DHT22;11991;57.150;-2.134;2023-03-31T01:59:43;10.10;99.90
23629;DHT22;11991;57.150;-2.134;2023-03-31T02:02:20;10.10;99.90
23629;DHT22;11991;57.150;-2.134;2023-03-31T02:04:56;10.10;99.90
23629;DHT22;11991;57.150;-2.134;2023-03-31T02:07:32;10.00;99.90
23629;DHT22;11991;57.150;-2.134;2023-03-31T02:10:03;10.10;99.90
23629;DHT22;11991;57.150;-2.134;2023-03-31T02:12:35;10.00;99.90
23629;DHT22;11991;57.150;-2.134;2023-03-31T02:15:08;10.00;99.90
23629;DHT22;11991;57.150;-2.134;2023-03-31T02:17:37;9.90;99.90
23629;DHT22;11991;57.150;-2.134;2023-03-31T02:20:11;9.90;99.90
23629;DHT22;11991;57.150;-2.134;2023-03-31T02:22:44;9.90;99.90
23629;DHT22;11991;57.150;-2.134;2023-03-31T02:25:16;9.90;99.90
23629;DHT22;11991;57.150;-2.134;2023-03-31T02:27:50;9.90;99.90
23629;DHT22;11991;57.150;-2.134;2023-03-31T02:30:20;9.90;99.90
23629;DHT22;11991;57.150;-2.134;2023-03-31T02:32:48;9.90;99.90
23629;DHT22;11991;57.150;-2.134;2023-03-31T02:35:18;9.90;99.90
23629;DHT22;11991;57.150;-2.134;2023-03-31T02:37:47;10.00;99.90
23629;DHT22;11991;57.150;-2.134;2023-03-31T02:40:19;10.00;99.90
23629;DHT22;11991;57.150;-2.134;2023-03-31T02:42:48;9.90;99.90
23629;DHT22;11991;57.150;-2.134;2023-03-31T02:48:27;9.80;99.90
23629;DHT22;11991;57.150;-2.134;2023-03-31T02:51:19;9.80;99.90
23629;DHT22;11991;57.150;-2.134;2023-03-31T03:08:22;9.40;99.90
23629;DHT22;11991;57.150;-2.134;2023-03-31T03:13:34;9.20;99.90
23629;DHT22;11991;57.150;-2.134;2023-03-31T03:16:14;9.10;99.90
23629;DHT22;11991;57.150;-2.134;2023-03-31T03:19:05;9.00;99.90
23629;DHT22;11991;57.150;-2.134;2023-03-31T03:21:33;8.90;99.90
23629;DHT22;11991;57.150;-2.134;2023-03-31T03:24:00;8.80;99.90
23629;DHT22;11991;57.150;-2.134;2023-03-31T03:26:27;8.80;99.90
23629;DHT22;11991;57.150;-2.134;2023-03-31T03:28:55;8.70;99.90
23629;DHT22;11991;57.150;-2.134;2023-03-31T03:31:22;8.70;99.90
23629;DHT22;11991;57.150;-2.134;2023-03-31T03:33:52;8.70;99.90
23629;DHT22;11991;57.150;-2.134;2023-03-31T03:36:20;8.60;99.90
23629;DHT22;11991;57.150;-2.134;2023-03-31T03:38:47;8.40;99.90
23629;DHT22;11991;57.150;-2.134;2023-03-31T03:41:14;8.40;99.90
23629;DHT22;11991;57.150;-2.134;2023-03-31T03:43:42;8.30;99.90
23629;DHT22;11991;57.150;-2.134;2023-03-31T03:46:09;8.30;99.90
23629;DHT22;11991;57.150;-2.134;2023-03-31T03:48:37;8.20;99.90
23629;DHT22;11991;57.150;-2.134;2023-03-31T03:51:04;8.20;99.90
23629;DHT22;11991;57.150;-2.134;2023-03-31T03:53:32;8.10;99.90
23629;DHT22;11991;57.150;-2.134;2023-03-31T03:55:59;8.10;99.90
23629;DHT22;11991;57.150;-2.134;2023-03-31T03:58:27;8.00;99.90
23629;DHT22;11991;57.150;-2.134;2023-03-31T04:00:54;8.00;99.90
23629;DHT22;11991;57.150;-2.134;2023-03-31T04:03:22;8.10;99.90
23629;DHT22;11991;57.150;-2.134;2023-03-31T04:05:50;8.10;99.90
23629;DHT22;11991;57.150;-2.134;2023-03-31T04:08:18;8.10;99.90
23629;DHT22;11991;57.150;-2.134;2023-03-31T04:10:46;8.20;99.90
23629;DHT22;11991;57.150;-2.134;2023-03-31T04:13:15;8.20;99.90
23629;DHT22;11991;57.150;-2.134;2023-03-31T04:15:43;8.20;99.90
23629;DHT22;11991;57.150;-2.134;2023-03-31T04:18:11;8.20;99.90
23629;DHT22;11991;57.150;-2.134;2023-03-31T04:20:50;8.10;99.90
23629;DHT22;11991;57.150;-2.134;2023-03-31T04:23:35;8.10;99.90
23629;DHT22;11991;57.150;-2.134;2023-03-31T04:26:09;8.20;99.90
23629;DHT22;11991;57.150;-2.134;2023-03-31T04:28:38;8.20;99.90
23629;DHT22;11991;57.150;-2.134;2023-03-31T04:31:09;8.20;99.90
23629;DHT22;11991;57.150;-2.134;2023-03-31T04:33:36;8.20;99.90
23629;DHT22;11991;57.150;-2.134;2023-03-31T04:36:05;8.30;99.90
23629;DHT22;11991;57.150;-2.134;2023-03-31T04:38:45;8.30;99.90
23629;DHT22;11991;57.150;-2.134;2023-03-31T04:41:13;8.30;99.90
23629;DHT22;11991;57.150;-2.134;2023-03-31T04:43:40;8.30;99.90
23629;DHT22;11991;57.150;-2.134;2023-03-31T04:46:08;8.40;99.90
23629;DHT22;11991;57.150;-2.134;2023-03-31T04:48:36;8.30;99.90
23629;DHT22;11991;57.150;-2.134;2023-03-31T04:51:03;8.40;99.90
23629;DHT22;11991;57.150;-2.134;2023-03-31T04:53:31;8.40;99.90
23629;DHT22;11991;57.150;-2.134;2023-03-31T04:55:58;8.40;99.90
23629;DHT22;11991;57.150;-2.134;2023-03-31T04:58:25;8.40;99.90
23629;DHT22;11991;57.150;-2.134;2023-03-31T05:00:52;8.40;99.90
23629;DHT22;11991;57.150;-2.134;2023-03-31T05:03:20;8.40;99.90
23629;DHT22;11991;57.150;-2.134;2023-03-31T05:05:47;8.40;99.90
23629;DHT22;11991;57.150;-2.134;2023-03-31T05:08:15;8.40;99.90
23629;DHT22;11991;57.150;-2.134;2023-03-31T05:10:42;8.50;99.90
23629;DHT22;11991;57.150;-2.134;2023-03-31T05:13:10;8.50;99.90
23629;DHT22;11991;57.150;-2.134;2023-03-31T05:15:40;8.50;99.90
23629;DHT22;11991;57.150;-2.134;2023-03-31T05:18:07;8.50;99.90
23629;DHT22;11991;57.150;-2.134;2023-03-31T05:20:34;8.60;99.90
23629;DHT22;11991;57.150;-2.134;2023-03-31T05:23:02;8.60;99.90
23629;DHT22;11991;57.150;-2.134;2023-03-31T05:25:29;8.60;99.90
23629;DHT22;11991;57.150;-2.134;2023-03-31T05:27:59;8.60;99.90
23629;DHT22;11991;57.150;-2.134;2023-03-31T05:30:27;8.60;99.90
23629;DHT22;11991;57.150;-2.134;2023-03-31T05:32:55;8.60;99.90
23629;DHT22;11991;57.150;-2.134;2023-03-31T05:35:23;8.60;99.90
23629;DHT22;11991;57.150;-2.134;2023-03-31T05:37:50;8.60;99.90
23629;DHT22;11991;57.150;-2.134;2023-03-31T05:40:17;8.60;99.90
23629;DHT22;11991;57.150;-2.134;2023-03-31T05:42:45;8.60;99.90
23629;DHT22;11991;57.150;-2.134;2023-03-31T05:45:12;8.70;99.90
23629;DHT22;11991;57.150;-2.134;2023-03-31T05:47:39;8.60;99.90
23629;DHT22;11991;57.150;-2.134;2023-03-31T05:50:07;8.70;99.90
23629;DHT22;11991;57.150;-2.134;2023-03-31T05:52:35;8.70;99.90
23629;DHT22;11991;57.150;-2.134;2023-03-31T05:55:03;8.70;99.90
23629;DHT22;11991;57.150;-2.134;2023-03-31T05:57:30;8.70;99.90
23629;DHT22;11991;57.150;-2.134;2023-03-31T05:59:58;8.80;99.90
23629;DHT22;11991;57.150;-2.134;2023-03-31T06:02:25;8.80;99.90
23629;DHT22;11991;57.150;-2.134;2023-03-31T06:04:53;8.80;99.90
23629;DHT22;11991;57.150;-2.134;2023-03-31T06:07:20;8.90;99.90
23629;DHT22;11991;57.150;-2.134;2023-03-31T06:09:50;8.90;99.90
23629;DHT22;11991;57.150;-2.134;2023-03-31T06:12:18;8.90;99.90
23629;DHT22;11991;57.150;-2.134;2023-03-31T06:14:45;8.90;99.90
23629;DHT22;11991;57.150;-2.134;2023-03-31T06:17:12;8.90;99.90
23629;DHT22;11991;57.150;-2.134;2023-03-31T06:19:40;8.90;99.90
23629;DHT22;11991;57.150;-2.134;2023-03-31T06:22:07;8.90;99.90
23629;DHT22;11991;57.150;-2.134;2023-03-31T06:24:34;8.90;99.90
23629;DHT22;11991;57.150;-2.134;2023-03-31T06:27:01;8.90;99.90
23629;DHT22;11991;57.150;-2.134;2023-03-31T06:29:29;8.90;99.90
23629;DHT22;11991;57.150;-2.134;2023-03-31T06:31:56;8.90;99.90
23629;DHT22;11991;57.150;-2.134;2023-03-31T06:34:24;8.90;99.90
23629;DHT22;11991;57.150;-2.134;2023-03-31T06:36:52;8.90;99.90
23629;DHT22;11991;57.150;-2.134;2023-03-31T06:39:19;8.90;99.90
23629;DHT22;11991;57.150;-2.134;2023-03-31T06:41:46;8.90;99.90
23629;DHT22;11991;57.150;-2.134;2023-03-31T06:44:22;8.90;99.90
23629;DHT22;11991;57.150;-2.134;2023-03-31T06:46:50;8.90;99.90
23629;DHT22;11991;57.150;-2.134;2023-03-31T06:49:17;8.90;99.90
23629;DHT22;11991;57.150;-2.134;2023-03-31T06:51:45;8.90;99.90
23629;DHT22;11991;57.150;-2.134;2023-03-31T06:54:12;8.90;99.90
23629;DHT22;11991;57.150;-2.134;2023-03-31T06:56:39;8.90;99.90
23629;DHT22;11991;57.150;-2.134;2023-03-31T06:59:07;8.90;99.90
23629;DHT22;11991;57.150;-2.134;2023-03-31T07:01:34;8.90;99.90
23629;DHT22;11991;57.150;-2.134;2023-03-31T07:04:03;8.90;99.90
23629;DHT22;11991;57.150;-2.134;2023-03-31T07:06:31;8.80;99.90
23629;DHT22;11991;57.150;-2.134;2023-03-31T07:08:58;8.80;99.90
23629;DHT22;11991;57.150;-2.134;2023-03-31T07:11:25;8.80;99.90
23629;DHT22;11991;57.150;-2.134;2023-03-31T07:13:52;8.80;99.90
23629;DHT22;11991;57.150;-2.134;2023-03-31T07:16:19;8.80;99.90
23629;DHT22;11991;57.150;-2.134;2023-03-31T07:18:47;8.90;99.90
23629;DHT22;11991;57.150;-2.134;2023-03-31T07:21:16;8.90;99.90
23629;DHT22;11991;57.150;-2.134;2023-03-31T07:23:43;8.90;99.90
23629;DHT22;11991;57.150;-2.134;2023-03-31T07:26:10;8.90;99.90
23629;DHT22;11991;57.150;-2.134;2023-03-31T07:28:38;8.90;99.90
23629;DHT22;11991;57.150;-2.134;2023-03-31T07:31:12;8.90;99.90
23629;DHT22;11991;57.150;-2.134;2023-03-31T07:33:40;8.90;99.90
23629;DHT22;11991;57.150;-2.134;2023-03-31T07:36:08;8.90;99.90
23629;DHT22;11991;57.150;-2.134;2023-03-31T07:38:42;8.80;99.90
23629;DHT22;11991;57.150;-2.134;2023-03-31T07:41:15;8.80;99.90
23629;DHT22;11991;57.150;-2.134;2023-03-31T07:43:43;8.90;99.90
23629;DHT22;11991;57.150;-2.134;2023-03-31T07:46:18;8.80;99.90
23629;DHT22;11991;57.150;-2.134;2023-03-31T07:48:46;8.70;99.90
23629;DHT22;11991;57.150;-2.134;2023-03-31T07:51:15;8.70;99.90
23629;DHT22;11991;57.150;-2.134;2023-03-31T07:53:43;8.70;99.90
23629;DHT22;11991;57.150;-2.134;2023-03-31T07:56:11;8.60;99.90
23629;DHT22;11991;57.150;-2.134;2023-03-31T07:58:39;8.50;99.90
23629;DHT22;11991;57.150;-2.134;2023-03-31T08:01:06;8.50;99.90
23629;DHT22;11991;57.150;-2.134;2023-03-31T08:03:34;8.50;99.90
23629;DHT22;11991;57.150;-2.134;2023-03-31T08:06:01;8.60;99.90
23629;DHT22;11991;57.150;-2.134;2023-03-31T08:08:28;8.60;99.90
23629;DHT22;11991;57.150;-2.134;2023-03-31T08:10:55;8.60;99.90
23629;DHT22;11991;57.150;-2.134;2023-03-31T08:13:22;8.60;99.90
23629;DHT22;11991;57.150;-2.134;2023-03-31T08:15:50;8.60;99.90
23629;DHT22;11991;57.150;-2.134;2023-03-31T08:18:18;8.60;99.90
23629;DHT22;11991;57.150;-2.134;2023-03-31T08:20:45;8.70;99.90
23629;DHT22;11991;57.150;-2.134;2023-03-31T08:23:15;8.70;99.90
23629;DHT22;11991;57.150;-2.134;2023-03-31T08:25:42;8.70;99.90
23629;DHT22;11991;57.150;-2.134;2023-03-31T08:28:10;8.70;99.90
23629;DHT22;11991;57.150;-2.134;2023-03-31T08:30:40;8.70;99.90
23629;DHT22;11991;57.150;-2.134;2023-03-31T08:33:07;8.70;99.90
23629;DHT22;11991;57.150;-2.134;2023-03-31T08:35:35;8.70;99.90
23629;DHT22;11991;57.150;-2.134;2023-03-31T08:38:02;8.70;99.90
23629;DHT22;11991;57.150;-2.134;2023-03-31T08:40:31;8.70;99.90
23629;DHT22;11991;57.150;-2.134;2023-03-31T08:43:07;8.60;99.90
23629;DHT22;11991;57.150;-2.134;2023-03-31T08:45:41;8.60;99.90
23629;DHT22;11991;57.150;-2.134;2023-03-31T08:48:27;8.60;99.90
23629;DHT22;11991;57.150;-2.134;2023-03-31T08:50:59;8.60;99.90
23629;DHT22;11991;57.150;-2.134;2023-03-31T08:53:34;8.60;99.90
23629;DHT22;11991;57.150;-2.134;2023-03-31T08:56:05;8.60;99.90
23629;DHT22;11991;57.150;-2.134;2023-03-31T08:58:45;8.70;99.90
23629;DHT22;11991;57.150;-2.134;2023-03-31T09:06:42;8.70;99.90
23629;DHT22;11991;57.150;-2.134;2023-03-31T09:09:19;8.70;99.90
23629;DHT22;11991;57.150;-2.134;2023-03-31T09:11:55;8.70;99.90
23629;DHT22;11991;57.150;-2.134;2023-03-31T09:15:13;8.70;99.90
23629;DHT22;11991;57.150;-2.134;2023-03-31T09:17:32;8.70;99.90
23629;DHT22;11991;57.150;-2.134;2023-03-31T09:20:24;8.70;99.90
23629;DHT22;11991;57.150;-2.134;2023-03-31T09:23:07;8.70;99.90
23629;DHT22;11991;57.150;-2.134;2023-03-31T09:25:37;8.60;99.90
23629;DHT22;11991;57.150;-2.134;2023-03-31T09:28:13;8.60;99.90
23629;DHT22;11991;57.150;-2.134;2023-03-31T09:30:45;8.50;99.90
23629;DHT22;11991;57.150;-2.134;2023-03-31T09:35:49;8.50;99.90
23629;DHT22;11991;57.150;-2.134;2023-03-31T09:38:18;8.50;99.90
23629;DHT22;11991;57.150;-2.134;2023-03-31T09:40:45;8.50;99.90
23629;DHT22;11991;57.150;-2.134;2023-03-31T09:43:24;8.50;99.90
23629;DHT22;11991;57.150;-2.134;2023-03-31T09:45:53;8.50;99.90
23629;DHT22;11991;57.150;-2.134;2023-03-31T09:48:49;8.50;99.90
23629;DHT22;11991;57.150;-2.134;2023-03-31T09:51:22;8.50;99.90
23629;DHT22;11991;57.150;-2.134;2023-03-31T09:54:01;8.50;99.90
23629;DHT22;11991;57.150;-2.134;2023-03-31T09:56:47;8.50;99.90
23629;DHT22;11991;57.150;-2.134;2023-03-31T09:59:21;8.50;99.90
23629;DHT22;11991;57.150;-2.134;2023-03-31T10:01:51;8.60;99.90
23629;DHT22;11991;57.150;-2.134;2023-03-31T10:04:27;8.60;99.90
23629;DHT22;11991;57.150;-2.134;2023-03-31T10:06:56;8.60;99.90
23629;DHT22;11991;57.150;-2.134;2023-03-31T10:09:27;8.60;99.90
23629;DHT22;11991;57.150;-2.134;2023-03-31T10:12:03;8.70;99.90
23629;DHT22;11991;57.150;-2.134;2023-03-31T10:14:46;8.60;99.90
23629;DHT22;11991;57.150;-2.134;2023-03-31T10:17:20;8.60;99.90
23629;DHT22;11991;57.150;-2.134;2023-03-31T10:19:57;8.60;99.90
23629;DHT22;11991;57.150;-2.134;2023-03-31T10:22:30;8.60;99.90
23629;DHT22;11991;57.150;-2.134;2023-03-31T10:25:15;8.60;99.90
23629;DHT22;11991;57.150;-2.134;2023-03-31T10:27:46;8.60;99.90
23629;DHT22;11991;57.150;-2.134;2023-03-31T10:30:20;8.60;99.90
23629;DHT22;11991;57.150;-2.134;2023-03-31T10:32:49;8.60;99.90
23629;DHT22;11991;57.150;-2.134;2023-03-31T10:35:28;8.60;99.90
23629;DHT22;11991;57.150;-2.134;2023-03-31T10:37:59;8.70;99.90
23629;DHT22;11991;57.150;-2.134;2023-03-31T10:40:32;8.60;99.90
23629;DHT22;11991;57.150;-2.134;2023-03-31T10:43:01;8.60;99.90
23629;DHT22;11991;57.150;-2.134;2023-03-31T10:45:35;8.70;99.90
23629;DHT22;11991;57.150;-2.134;2023-03-31T10:48:09;8.70;99.90
23629;DHT22;11991;57.150;-2.134;2023-03-31T10:50:43;8.70;99.90
23629;DHT22;11991;57.150;-2.134;2023-03-31T10:53:13;8.70;99.90
23629;DHT22;11991;57.150;-2.134;2023-03-31T10:58:46;8.70;99.90
23629;DHT22;11991;57.150;-2.134;2023-03-31T11:04:43;8.70;99.90
23629;DHT22;11991;57.150;-2.134;2023-03-31T11:20:34;8.80;99.90
23629;DHT22;11991;57.150;-2.134;2023-03-31T11:25:45;8.80;99.90
23629;DHT22;11991;57.150;-2.134;2023-03-31T11:31:11;8.80;99.90
23629;DHT22;11991;57.150;-2.134;2023-03-31T11:39:18;8.80;99.90
23629;DHT22;11991;57.150;-2.134;2023-03-31T11:42:02;8.80;99.90
23629;DHT22;11991;57.150;-2.134;2023-03-31T11:45:03;8.80;99.90
23629;DHT22;11991;57.150;-2.134;2023-03-31T11:47:34;8.80;99.90
23629;DHT22;11991;57.150;-2.134;2023-03-31T11:50:10;8.80;99.90
23629;DHT22;11991;57.150;-2.134;2023-03-31T11:52:42;8.80;99.90
23629;DHT22;11991;57.150;-2.134;2023-03-31T11:55:18;8.80;99.90
23629;DHT22;11991;57.150;-2.134;2023-03-31T12:00:34;8.80;99.90
23629;DHT22;11991;57.150;-2.134;2023-03-31T12:06:02;8.80;99.90
23629;DHT22;11991;57.150;-2.134;2023-03-31T12:11:42;8.80;99.90
23629;DHT22;11991;57.150;-2.134;2023-03-31T12:14:23;8.90;99.90
23629;DHT22;11991;57.150;-2.134;2023-03-31T12:16:54;8.80;99.90
23629;DHT22;11991;57.150;-2.134;2023-03-31T12:22:37;8.80;99.90
23629;DHT22;11991;57.150;-2.134;2023-03-31T12:25:12;8.80;99.90
23629;DHT22;11991;57.150;-2.134;2023-03-31T12:27:42;8.80;99.90
23629;DHT22;11991;57.150;-2.134;2023-03-31T12:30:29;8.70;99.90
23629;DHT22;11991;57.150;-2.134;2023-03-31T12:33:05;8.70;99.90
23629;DHT22;11991;57.150;-2.134;2023-03-31T12:43:55;8.40;99.90
23629;DHT22;11991;57.150;-2.134;2023-03-31T12:49:55;8.40;99.90
23629;DHT22;11991;57.150;-2.134;2023-03-31T12:57:42;8.40;99.90
23629;DHT22;11991;57.150;-2.134;2023-03-31T13:02:50;8.40;99.90
23629;DHT22;11991;57.150;-2.134;2023-03-31T13:05:44;8.40;99.90
23629;DHT22;11991;57.150;-2.134;2023-03-31T13:11:21;8.40;99.90
23629;DHT22;11991;57.150;-2.134;2023-03-31T13:14:04;8.50;99.90
23629;DHT22;11991;57.150;-2.134;2023-03-31T13:16:33;8.50;99.90
23629;DHT22;11991;57.150;-2.134;2023-03-31T13:19:02;8.50;99.90
23629;DHT22;11991;57.150;-2.134;2023-03-31T13:21:29;8.50;99.90
23629;DHT22;11991;57.150;-2.134;2023-03-31T13:24:00;8.40;99.90
23629;DHT22;11991;57.150;-2.134;2023-03-31T13:26:38;8.40;99.90
23629;DHT22;11991;57.150;-2.134;2023-03-31T13:34:46;8.40;99.90
23629;DHT22;11991;57.150;-2.134;2023-03-31T13:45:21;8.30;99.90
23629;DHT22;11991;57.150;-2.134;2023-03-31T13:48:17;8.40;99.90
23629;DHT22;11991;57.150;-2.134;2023-03-31T14:02:26;8.20;99.90
23629;DHT22;11991;57.150;-2.134;2023-03-31T14:05:01;8.20;99.90
23629;DHT22;11991;57.150;-2.134;2023-03-31T14:07:42;8.20;99.90
23629;DHT22;11991;57.150;-2.134;2023-03-31T14:10:40;8.20;99.90
23629;DHT22;11991;57.150;-2.134;2023-03-31T14:13:17;8.20;99.90
23629;DHT22;11991;57.150;-2.134;2023-03-31T14:15:57;8.20;99.90
23629;DHT22;11991;57.150;-2.134;2023-03-31T14:18:27;8.30;99.90
23629;DHT22;11991;57.150;-2.134;2023-03-31T14:21:47;8.30;99.90
23629;DHT22;11991;57.150;-2.134;2023-03-31T14:30:09;8.40;99.90
23629;DHT22;11991;57.150;-2.134;2023-03-31T14:37:26;8.30;99.90
23629;DHT22;11991;57.150;-2.134;2023-03-31T14:39:56;8.30;99.90
23629;DHT22;11991;57.150;-2.134;2023-03-31T14:42:41;8.20;99.90
23629;DHT22;11991;57.150;-2.134;2023-03-31T14:48:19;8.10;99.90
23629;DHT22;11991;57.150;-2.134;2023-03-31T14:50:46;8.10;99.90
23629;DHT22;11991;57.150;-2.134;2023-03-31T14:53:15;8.10;99.90
23629;DHT22;11991;57.150;-2.134;2023-03-31T14:55:44;8.10;99.90
23629;DHT22;11991;57.150;-2.134;2023-03-31T14:58:29;8.10;99.90
23629;DHT22;11991;57.150;-2.134;2023-03-31T15:00:58;8.10;99.90
23629;DHT22;11991;57.150;-2.134;2023-03-31T15:03:27;8.10;99.90
23629;DHT22;11991;57.150;-2.134;2023-03-31T15:05:59;8.10;99.90
23629;DHT22;11991;57.150;-2.134;2023-03-31T15:08:28;8.10;99.90
23629;DHT22;11991;57.150;-2.134;2023-03-31T15:10:59;8.10;99.90
23629;DHT22;11991;57.150;-2.134;2023-03-31T15:13:44;8.10;99.90
23629;DHT22;11991;57.150;-2.134;2023-03-31T15:16:36;8.10;99.90
23629;DHT22;11991;57.150;-2.134;2023-03-31T15:19:20;8.10;99.90
23629;DHT22;11991;57.150;-2.134;2023-03-31T15:22:17;8.10;99.90
23629;DHT22;11991;57.150;-2.134;2023-03-31T15:24:46;8.10;99.90
23629;DHT22;11991;57.150;-2.134;2023-03-31T15:27:37;8.00;99.90
23629;DHT22;11991;57.150;-2.134;2023-03-31T15:30:13;8.00;99.90
23629;DHT22;11991;57.150;-2.134;2023-03-31T15:32:42;8.00;99.90
23629;DHT22;11991;57.150;-2.134;2023-03-31T15:35:20;8.00;99.90
23629;DHT22;11991;57.150;-2.134;2023-03-31T15:37:50;8.00;99.90
23629;DHT22;11991;57.150;-2.134;2023-03-31T15:40:24;7.90;99.90
23629;DHT22;11991;57.150;-2.134;2023-03-31T15:42:58;7.90;99.90
23629;DHT22;11991;57.150;-2.134;2023-03-31T15:45:55;7.90;99.90
23629;DHT22;11991;57.150;-2.134;2023-03-31T15:51:06;7.90;99.90
23629;DHT22;11991;57.150;-2.134;2023-03-31T15:53:48;7.90;99.90
23629;DHT22;11991;57.150;-2.134;2023-03-31T15:56:42;7.90;99.90
23629;DHT22;11991;57.150;-2.134;2023-03-31T15:59:23;7.90;99.90
23629;DHT22;11991;57.150;-2.134;2023-03-31T16:02:00;7.90;99.90
23629;DHT22;11991;57.150;-2.134;2023-03-31T16:04:31;7.90;99.90
23629;DHT22;11991;57.150;-2.134;2023-03-31T16:07:07;7.90;99.90
23629;DHT22;11991;57.150;-2.134;2023-03-31T16:12:37;7.80;99.90
23629;DHT22;11991;57.150;-2.134;2023-03-31T16:15:16;7.80;99.90
23629;DHT22;11991;57.150;-2.134;2023-03-31T16:17:53;7.80;99.90
23629;DHT22;11991;57.150;-2.134;2023-03-31T16:20:55;7.80;99.90
23629;DHT22;11991;57.150;-2.134;2023-03-31T16:23:30;7.70;99.90
23629;DHT22;11991;57.150;-2.134;2023-03-31T16:25:58;7.60;99.90
23629;DHT22;11991;57.150;-2.134;2023-03-31T16:28:29;7.60;99.90
23629;DHT22;11991;57.150;-2.134;2023-03-31T16:30:57;7.60;99.90
23629;DHT22;11991;57.150;-2.134;2023-03-31T16:33:29;7.60;99.90
23629;DHT22;11991;57.150;-2.134;2023-03-31T16:36:01;7.60;99.90
23629;DHT22;11991;57.150;-2.134;2023-03-31T16:38:28;7.60;99.90
23629;DHT22;11991;57.150;-2.134;2023-03-31T16:40:56;7.60;99.90
23629;DHT22;11991;57.150;-2.134;2023-03-31T16:43:28;7.60;99.90
23629;DHT22;11991;57.150;-2.134;2023-03-31T16:46:02;7.60;99.90
23629;DHT22;11991;57.150;-2.134;2023-03-31T16:48:30;7.50;99.90
23629;DHT22;11991;57.150;-2.134;2023-03-31T16:51:03;7.50;99.90
23629;DHT22;11991;57.150;-2.134;2023-03-31T16:53:32;7.50;99.90
23629;DHT22;11991;57.150;-2.134;2023-03-31T16:56:00;7.60;99.90
23629;DHT22;11991;57.150;-2.134;2023-03-31T16:58:28;7.60;99.90
23629;DHT22;11991;57.150;-2.134;2023-03-31T17:00:56;7.60;99.90
23629;DHT22;11991;57.150;-2.134;2023-03-31T17:03:23;7.70;99.90
23629;DHT22;11991;57.150;-2.134;2023-03-31T17:05:53;7.70;99.90
23629;DHT22;11991;57.150;-2.134;2023-03-31T17:08:25;7.60;99.90
23629;DHT22;11991;57.150;-2.134;2023-03-31T17:11:05;7.60;99.90
23629;DHT22;11991;57.150;-2.134;2023-03-31T17:13:33;7.60;99.90
23629;DHT22;11991;57.150;-2.134;2023-03-31T17:16:01;7.50;99.90
23629;DHT22;11991;57.150;-2.134;2023-03-31T17:18:48;7.50;99.90
23629;DHT22;11991;57.150;-2.134;2023-03-31T17:21:23;7.50;99.90
23629;DHT22;11991;57.150;-2.134;2023-03-31T17:23:52;7.50;99.90
23629;DHT22;11991;57.150;-2.134;2023-03-31T17:26:19;7.50;99.90
23629;DHT22;11991;57.150;-2.134;2023-03-31T17:28:46;7.50;99.90
23629;DHT22;11991;57.150;-2.134;2023-03-31T17:31:19;7.40;99.90
23629;DHT22;11991;57.150;-2.134;2023-03-31T17:33:50;7.30;99.90
23629;DHT22;11991;57.150;-2.134;2023-03-31T17:36:18;7.30;99.90
23629;DHT22;11991;57.150;-2.134;2023-03-31T17:38:48;7.30;99.90
23629;DHT22;11991;57.150;-2.134;2023-03-31T17:41:16;7.20;99.90
23629;DHT22;11991;57.150;-2.134;2023-03-31T17:43:45;7.20;99.90
23629;DHT22;11991;57.150;-2.134;2023-03-31T17:46:13;7.20;99.90
23629;DHT22;11991;57.150;-2.134;2023-03-31T17:48:54;7.20;99.90
23629;DHT22;11991;57.150;-2.134;2023-03-31T17:51:24;7.20;99.90
23629;DHT22;11991;57.150;-2.134;2023-03-31T17:53:52;7.10;99.90
23629;DHT22;11991;57.150;-2.134;2023-03-31T17:56:19;7.10;99.90
23629;DHT22;11991;57.150;-2.134;2023-03-31T17:58:46;7.10;99.90
23629;DHT22;11991;57.150;-2.134;2023-03-31T18:01:24;7.10;99.90
23629;DHT22;11991;57.150;-2.134;2023-03-31T18:04:43;7.00;99.90
23629;DHT22;11991;57.150;-2.134;2023-03-31T18:07:10;7.00;99.90
23629;DHT22;11991;57.150;-2.134;2023-03-31T18:09:38;7.00;99.90
23629;DHT22;11991;57.150;-2.134;2023-03-31T18:12:42;7.00;99.90
23629;DHT22;11991;57.150;-2.134;2023-03-31T18:16:03;7.00;99.90
23629;DHT22;11991;57.150;-2.134;2023-03-31T18:18:31;7.00;99.90
23629;DHT22;11991;57.150;-2.134;2023-03-31T18:21:10;7.00;99.90
23629;DHT22;11991;57.150;-2.134;2023-03-31T18:23:39;6.90;99.90
23629;DHT22;11991;57.150;-2.134;2023-03-31T18:26:07;6.90;99.90
23629;DHT22;11991;57.150;-2.134;2023-03-31T18:28:40;6.90;99.90
23629;DHT22;11991;57.150;-2.134;2023-03-31T18:31:08;6.80;99.90
23629;DHT22;11991;57.150;-2.134;2023-03-31T18:33:37;6.80;99.90
23629;DHT22;11991;57.150;-2.134;2023-03-31T18:36:05;6.80;99.90
23629;DHT22;11991;57.150;-2.134;2023-03-31T18:38:33;6.80;99.90
23629;DHT22;11991;57.150;-2.134;2023-03-31T18:41:03;6.80;99.90
23629;DHT22;11991;57.150;-2.134;2023-03-31T18:46:47;6.90;99.90
23629;DHT22;11991;57.150;-2.134;2023-03-31T18:49:15;6.90;99.90